sensor_id;sensor_type;location;lat;lon;timestamp;temperature;humidity
40828;DHT22;26549;50.918;5.338;2023-04-03T00:02:07;6.40;99.90
40828;DHT22;26549;50.918;5.338;2023-04-03T00:04:33;6.40;99.90
40828;DHT22;26549;50.918;5.338;2023-04-03T00:06:59;6.30;99.90
40828;DHT22;26549;50.918;5.338;2023-04-03T00:09:24;6.30;99.90
40828;DHT22;26549;50.918;5.338;2023-04-03T00:11:50;6.30;99.90
40828;DHT22;26549;50.918;5.338;2023-04-03T00:14:16;6.40;99.90
40828;DHT22;26549;50.918;5.338;2023-04-03T00:16:42;6.30;99.90
40828;DHT22;26549;50.918;5.338;2023-04-03T00:19:07;6.30;99.90
40828;DHT22;26549;50.918;5.338;2023-04-03T00:21:33;6.30;99.90
40828;DHT22;26549;50.918;5.338;2023-04-03T00:23:59;6.10;99.90
40828;DHT22;26549;50.918;5.338;2023-04-03T00:26:25;6.00;99.90
40828;DHT22;26549;50.918;5.338;2023-04-03T00:28:51;6.00;99.90
40828;DHT22;26549;50.918;5.338;2023-04-03T00:31:16;5.90;99.90
40828;DHT22;26549;50.918;5.338;2023-04-03T00:33:42;6.00;99.90
40828;DHT22;26549;50.918;5.338;2023-04-03T00:36:09;5.90;99.90
40828;DHT22;26549;50.918;5.338;2023-04-03T00:38:35;6.00;99.90
40828;DHT22;26549;50.918;5.338;2023-04-03T00:41:01;6.10;99.90
40828;DHT22;26549;50.918;5.338;2023-04-03T00:43:27;6.10;99.90
40828;DHT22;26549;50.918;5.338;2023-04-03T00:45:55;6.10;99.90
40828;DHT22;26549;50.918;5.338;2023-04-03T00:48:29;6.00;99.90
40828;DHT22;26549;50.918;5.338;2023-04-03T00:50:55;6.00;99.90
40828;DHT22;26549;50.918;5.338;2023-04-03T00:53:25;5.90;99.90
40828;DHT22;26549;50.918;5.338;2023-04-03T00:55:54;5.90;99.90
40828;DHT22;26549;50.918;5.338;2023-04-03T00:58:23;5.90;99.90
40828;DHT22;26549;50.918;5.338;2023-04-03T01:00:55;5.90;99.90
40828;DHT22;26549;50.918;5.338;2023-04-03T01:03:23;6.00;99.90
40828;DHT22;26549;50.918;5.338;2023-04-03T01:05:49;5.80;99.90
40828;DHT22;26549;50.918;5.338;2023-04-03T01:08:15;5.80;99.90
40828;DHT22;26549;50.918;5.338;2023-04-03T01:10:42;5.80;99.90
40828;DHT22;26549;50.918;5.338;2023-04-03T01:13:27;5.70;99.90
40828;DHT22;26549;50.918;5.338;2023-04-03T01:15:54;5.70;99.90
40828;DHT22;26549;50.918;5.338;2023-04-03T01:18:21;5.60;99.90
40828;DHT22;26549;50.918;5.338;2023-04-03T01:26:40;5.70;99.90
40828;DHT22;26549;50.918;5.338;2023-04-03T01:29:05;5.70;99.90
40828;DHT22;26549;50.918;5.338;2023-04-03T01:31:49;5.60;99.90
40828;DHT22;26549;50.918;5.338;2023-04-03T01:34:15;5.60;99.90
40828;DHT22;26549;50.918;5.338;2023-04-03T01:36:41;5.50;99.90
40828;DHT22;26549;50.918;5.338;2023-04-03T01:39:07;5.40;99.90
40828;DHT22;26549;50.918;5.338;2023-04-03T01:41:33;5.30;99.90
40828;DHT22;26549;50.918;5.338;2023-04-03T01:43:58;5.30;99.90
40828;DHT22;26549;50.918;5.338;2023-04-03T01:46:24;5.40;99.90
40828;DHT22;26549;50.918;5.338;2023-04-03T01:48:50;5.20;99.90
40828;DHT22;26549;50.918;5.338;2023-04-03T01:51:16;5.20;99.90
40828;DHT22;26549;50.918;5.338;2023-04-03T01:53:42;5.10;99.90
40828;DHT22;26549;50.918;5.338;2023-04-03T01:56:08;5.10;99.90
40828;DHT22;26549;50.918;5.338;2023-04-03T01:58:34;5.10;99.90
40828;DHT22;26549;50.918;5.338;2023-04-03T02:01:00;5.10;99.90
40828;DHT22;26549;50.918;5.338;2023-04-03T02:03:25;5.10;99.90
40828;DHT22;26549;50.918;5.338;2023-04-03T02:05:51;5.10;99.90
40828;DHT22;26549;50.918;5.338;2023-04-03T02:08:17;5.00;99.90
40828;DHT22;26549;50.918;5.338;2023-04-03T02:10:50;4.90;99.90
40828;DHT22;26549;50.918;5.338;2023-04-03T02:13:17;4.90;99.90
40828;DHT22;26549;50.918;5.338;2023-04-03T02:15:43;4.90;99.90
40828;DHT22;26549;50.918;5.338;2023-04-03T02:18:09;4.90;99.90
40828;DHT22;26549;50.918;5.338;2023-04-03T02:20:35;4.90;99.90
40828;DHT22;26549;50.918;5.338;2023-04-03T02:23:01;4.90;99.90
40828;DHT22;26549;50.918;5.338;2023-04-03T02:25:27;4.90;99.90
40828;DHT22;26549;50.918;5.338;2023-04-03T02:27:52;4.90;99.90
40828;DHT22;26549;50.918;5.338;2023-04-03T02:30:18;4.80;99.90
40828;DHT22;26549;50.918;5.338;2023-04-03T02:32:44;4.90;99.90
40828;DHT22;26549;50.918;5.338;2023-04-03T02:35:11;4.90;99.90
40828;DHT22;26549;50.918;5.338;2023-04-03T02:37:36;4.90;99.90
40828;DHT22;26549;50.918;5.338;2023-04-03T02:40:02;5.10;99.90
40828;DHT22;26549;50.918;5.338;2023-04-03T02:42:29;5.00;99.90
40828;DHT22;26549;50.918;5.338;2023-04-03T02:44:55;4.90;99.90
40828;DHT22;26549;50.918;5.338;2023-04-03T02:47:21;4.90;99.90
40828;DHT22;26549;50.918;5.338;2023-04-03T02:49:47;5.00;99.90
40828;DHT22;26549;50.918;5.338;2023-04-03T02:52:14;4.90;99.90
40828;DHT22;26549;50.918;5.338;2023-04-03T02:54:39;4.90;99.90
40828;DHT22;26549;50.918;5.338;2023-04-03T02:57:05;4.90;99.90
40828;DHT22;26549;50.918;5.338;2023-04-03T02:59:33;4.90;99.90
40828;DHT22;26549;50.918;5.338;2023-04-03T03:01:59;4.90;99.90
40828;DHT22;26549;50.918;5.338;2023-04-03T03:04:24;4.80;99.90
40828;DHT22;26549;50.918;5.338;2023-04-03T03:06:50;4.80;99.90
40828;DHT22;26549;50.918;5.338;2023-04-03T03:09:17;4.80;99.90
40828;DHT22;26549;50.918;5.338;2023-04-03T03:11:43;4.70;99.90
40828;DHT22;26549;50.918;5.338;2023-04-03T03:14:09;4.60;99.90
40828;DHT22;26549;50.918;5.338;2023-04-03T03:16:34;4.60;99.90
40828;DHT22;26549;50.918;5.338;2023-04-03T03:19:00;4.50;99.90
40828;DHT22;26549;50.918;5.338;2023-04-03T03:21:26;4.50;99.90
40828;DHT22;26549;50.918;5.338;2023-04-03T03:23:51;4.60;99.90
40828;DHT22;26549;50.918;5.338;2023-04-03T03:26:17;4.50;99.90
40828;DHT22;26549;50.918;5.338;2023-04-03T03:28:43;4.50;99.90
40828;DHT22;26549;50.918;5.338;2023-04-03T03:31:09;4.50;99.90
40828;DHT22;26549;50.918;5.338;2023-04-03T03:33:35;4.40;99.90
40828;DHT22;26549;50.918;5.338;2023-04-03T03:36:01;4.30;99.90
40828;DHT22;26549;50.918;5.338;2023-04-03T03:38:27;4.40;99.90
40828;DHT22;26549;50.918;5.338;2023-04-03T03:40:53;4.40;99.90
40828;DHT22;26549;50.918;5.338;2023-04-03T03:43:19;4.50;99.90
40828;DHT22;26549;50.918;5.338;2023-04-03T03:45:50;4.50;99.90
40828;DHT22;26549;50.918;5.338;2023-04-03T03:48:16;4.40;99.90
40828;DHT22;26549;50.918;5.338;2023-04-03T03:50:42;4.40;99.90
40828;DHT22;26549;50.918;5.338;2023-04-03T03:53:08;4.40;99.90
40828;DHT22;26549;50.918;5.338;2023-04-03T03:55:33;4.40;99.90
40828;DHT22;26549;50.918;5.338;2023-04-03T03:57:59;4.50;99.90
40828;DHT22;26549;50.918;5.338;2023-04-03T04:00:27;4.50;99.90
40828;DHT22;26549;50.918;5.338;2023-04-03T04:02:53;4.40;99.90
40828;DHT22;26549;50.918;5.338;2023-04-03T04:05:18;4.30;99.90
40828;DHT22;26549;50.918;5.338;2023-04-03T04:07:45;4.40;99.90
40828;DHT22;26549;50.918;5.338;2023-04-03T04:10:10;4.40;99.90
40828;DHT22;26549;50.918;5.338;2023-04-03T04:12:36;4.30;99.90
40828;DHT22;26549;50.918;5.338;2023-04-03T04:15:03;4.20;99.90
40828;DHT22;26549;50.918;5.338;2023-04-03T04:17:29;4.20;99.90
40828;DHT22;26549;50.918;5.338;2023-04-03T04:19:54;4.20;99.90
40828;DHT22;26549;50.918;5.338;2023-04-03T04:22:20;4.20;99.90
40828;DHT22;26549;50.918;5.338;2023-04-03T04:24:46;4.30;99.90
40828;DHT22;26549;50.918;5.338;2023-04-03T04:27:11;4.20;99.90
40828;DHT22;26549;50.918;5.338;2023-04-03T04:29:37;4.20;99.90
40828;DHT22;26549;50.918;5.338;2023-04-03T04:32:03;4.20;99.90
40828;DHT22;26549;50.918;5.338;2023-04-03T04:34:29;4.20;99.90
40828;DHT22;26549;50.918;5.338;2023-04-03T04:36:55;4.10;99.90
40828;DHT22;26549;50.918;5.338;2023-04-03T04:39:21;4.10;99.90
40828;DHT22;26549;50.918;5.338;2023-04-03T04:41:47;4.10;99.90
40828;DHT22;26549;50.918;5.338;2023-04-03T04:44:12;4.30;99.90
40828;DHT22;26549;50.918;5.338;2023-04-03T04:46:38;4.30;99.90
40828;DHT22;26549;50.918;5.338;2023-04-03T04:49:04;4.30;99.90
40828;DHT22;26549;50.918;5.338;2023-04-03T04:51:30;4.30;99.90
40828;DHT22;26549;50.918;5.338;2023-04-03T04:53:55;4.20;99.90
40828;DHT22;26549;50.918;5.338;2023-04-03T04:56:21;4.40;99.90
40828;DHT22;26549;50.918;5.338;2023-04-03T04:58:47;4.30;99.90
40828;DHT22;26549;50.918;5.338;2023-04-03T05:01:13;4.30;99.90
40828;DHT22;26549;50.918;5.338;2023-04-03T05:03:40;4.30;99.90
40828;DHT22;26549;50.918;5.338;2023-04-03T05:06:05;4.30;99.90
40828;DHT22;26549;50.918;5.338;2023-04-03T05:08:31;4.30;99.90
40828;DHT22;26549;50.918;5.338;2023-04-03T05:10:57;4.40;99.90
40828;DHT22;26549;50.918;5.338;2023-04-03T05:13:23;4.30;99.90
40828;DHT22;26549;50.918;5.338;2023-04-03T05:15:49;4.30;99.90
40828;DHT22;26549;50.918;5.338;2023-04-03T05:18:15;4.30;99.90
40828;DHT22;26549;50.918;5.338;2023-04-03T05:20:40;4.30;99.90
40828;DHT22;26549;50.918;5.338;2023-04-03T05:23:06;4.20;99.90
40828;DHT22;26549;50.918;5.338;2023-04-03T05:25:32;4.30;99.90
40828;DHT22;26549;50.918;5.338;2023-04-03T05:27:58;4.30;99.90
40828;DHT22;26549;50.918;5.338;2023-04-03T05:30:24;4.40;99.90
40828;DHT22;26549;50.918;5.338;2023-04-03T05:32:49;4.40;99.90
40828;DHT22;26549;50.918;5.338;2023-04-03T05:35:15;4.30;99.90
40828;DHT22;26549;50.918;5.338;2023-04-03T05:37:41;4.30;99.90
40828;DHT22;26549;50.918;5.338;2023-04-03T05:40:07;4.30;99.90
40828;DHT22;26549;50.918;5.338;2023-04-03T05:42:33;4.30;99.90
40828;DHT22;26549;50.918;5.338;2023-04-03T05:45:00;4.40;99.90
40828;DHT22;26549;50.918;5.338;2023-04-03T05:47:26;4.40;99.90
40828;DHT22;26549;50.918;5.338;2023-04-03T05:49:51;4.60;99.90
40828;DHT22;26549;50.918;5.338;2023-04-03T05:52:20;4.50;99.90
40828;DHT22;26549;50.918;5.338;2023-04-03T05:54:46;4.60;99.90
40828;DHT22;26549;50.918;5.338;2023-04-03T05:57:14;4.70;99.90
40828;DHT22;26549;50.918;5.338;2023-04-03T05:59:42;4.90;99.90
40828;DHT22;26549;50.918;5.338;2023-04-03T06:02:14;4.50;99.90
40828;DHT22;26549;50.918;5.338;2023-04-03T06:04:40;4.60;99.90
40828;DHT22;26549;50.918;5.338;2023-04-03T06:07:08;4.60;99.90
40828;DHT22;26549;50.918;5.338;2023-04-03T06:09:36;4.50;99.90
40828;DHT22;26549;50.918;5.338;2023-04-03T06:12:01;4.80;99.90
40828;DHT22;26549;50.918;5.338;2023-04-03T06:14:27;4.90;99.90
40828;DHT22;26549;50.918;5.338;2023-04-03T06:16:53;5.10;99.90
40828;DHT22;26549;50.918;5.338;2023-04-03T06:19:20;5.10;99.90
40828;DHT22;26549;50.918;5.338;2023-04-03T06:21:46;5.30;99.90
40828;DHT22;26549;50.918;5.338;2023-04-03T06:24:14;5.40;99.90
40828;DHT22;26549;50.918;5.338;2023-04-03T06:26:41;5.60;99.90
40828;DHT22;26549;50.918;5.338;2023-04-03T06:29:07;5.70;99.90
40828;DHT22;26549;50.918;5.338;2023-04-03T06:31:32;5.50;99.90
40828;DHT22;26549;50.918;5.338;2023-04-03T06:33:58;5.60;99.90
40828;DHT22;26549;50.918;5.338;2023-04-03T06:36:24;5.80;99.90
40828;DHT22;26549;50.918;5.338;2023-04-03T06:38:49;6.00;99.90
40828;DHT22;26549;50.918;5.338;2023-04-03T06:41:16;6.10;99.90
40828;DHT22;26549;50.918;5.338;2023-04-03T06:43:43;6.00;99.90
40828;DHT22;26549;50.918;5.338;2023-04-03T06:46:20;6.10;99.90
40828;DHT22;26549;50.918;5.338;2023-04-03T06:48:47;6.10;99.90
40828;DHT22;26549;50.918;5.338;2023-04-03T06:51:25;6.20;99.90
40828;DHT22;26549;50.918;5.338;2023-04-03T06:53:53;6.20;99.90
40828;DHT22;26549;50.918;5.338;2023-04-03T06:56:20;6.10;99.90
40828;DHT22;26549;50.918;5.338;2023-04-03T06:58:46;6.00;99.90
40828;DHT22;26549;50.918;5.338;2023-04-03T07:01:14;6.10;99.90
40828;DHT22;26549;50.918;5.338;2023-04-03T07:03:40;6.10;99.90
40828;DHT22;26549;50.918;5.338;2023-04-03T07:06:09;6.40;99.90
40828;DHT22;26549;50.918;5.338;2023-04-03T07:08:36;6.40;99.90
40828;DHT22;26549;50.918;5.338;2023-04-03T07:11:03;6.30;99.90
40828;DHT22;26549;50.918;5.338;2023-04-03T07:13:30;6.40;99.90
40828;DHT22;26549;50.918;5.338;2023-04-03T07:15:56;6.30;99.90
40828;DHT22;26549;50.918;5.338;2023-04-03T07:18:22;6.40;99.90
40828;DHT22;26549;50.918;5.338;2023-04-03T07:20:48;6.40;99.90
40828;DHT22;26549;50.918;5.338;2023-04-03T07:23:14;6.50;99.90
40828;DHT22;26549;50.918;5.338;2023-04-03T07:25:48;6.60;99.90
40828;DHT22;26549;50.918;5.338;2023-04-03T07:28:14;6.60;99.90
40828;DHT22;26549;50.918;5.338;2023-04-03T07:30:48;6.70;99.90
40828;DHT22;26549;50.918;5.338;2023-04-03T07:33:15;6.80;99.90
40828;DHT22;26549;50.918;5.338;2023-04-03T07:35:42;6.90;99.90
40828;DHT22;26549;50.918;5.338;2023-04-03T07:38:08;6.80;99.90
40828;DHT22;26549;50.918;5.338;2023-04-03T07:40:37;7.00;99.90
40828;DHT22;26549;50.918;5.338;2023-04-03T07:43:04;7.10;99.90
40828;DHT22;26549;50.918;5.338;2023-04-03T07:45:31;7.30;99.90
40828;DHT22;26549;50.918;5.338;2023-04-03T07:47:57;7.40;99.90
40828;DHT22;26549;50.918;5.338;2023-04-03T07:50:23;7.40;99.90
40828;DHT22;26549;50.918;5.338;2023-04-03T07:52:49;7.40;99.90
40828;DHT22;26549;50.918;5.338;2023-04-03T07:55:16;7.40;99.90
40828;DHT22;26549;50.918;5.338;2023-04-03T07:57:42;7.40;99.90
40828;DHT22;26549;50.918;5.338;2023-04-03T08:00:09;7.50;99.90
40828;DHT22;26549;50.918;5.338;2023-04-03T08:02:35;7.50;99.90
40828;DHT22;26549;50.918;5.338;2023-04-03T08:05:02;7.40;99.90
40828;DHT22;26549;50.918;5.338;2023-04-03T08:07:28;7.40;99.90
40828;DHT22;26549;50.918;5.338;2023-04-03T08:09:54;7.50;99.90
40828;DHT22;26549;50.918;5.338;2023-04-03T08:12:20;7.60;99.90
40828;DHT22;26549;50.918;5.338;2023-04-03T08:14:46;7.70;99.90
40828;DHT22;26549;50.918;5.338;2023-04-03T08:17:13;7.70;99.90
40828;DHT22;26549;50.918;5.338;2023-04-03T08:19:49;7.80;99.90
40828;DHT22;26549;50.918;5.338;2023-04-03T08:22:15;7.90;99.90
40828;DHT22;26549;50.918;5.338;2023-04-03T08:24:41;8.00;99.90
40828;DHT22;26549;50.918;5.338;2023-04-03T08:27:07;8.00;99.90
40828;DHT22;26549;50.918;5.338;2023-04-03T08:29:33;8.00;99.90
40828;DHT22;26549;50.918;5.338;2023-04-03T08:31:58;7.90;99.90
40828;DHT22;26549;50.918;5.338;2023-04-03T08:34:24;7.80;99.90
40828;DHT22;26549;50.918;5.338;2023-04-03T08:36:50;7.70;99.90
40828;DHT22;26549;50.918;5.338;2023-04-03T08:39:16;7.90;99.90
40828;DHT22;26549;50.918;5.338;2023-04-03T08:41:43;8.10;99.90
40828;DHT22;26549;50.918;5.338;2023-04-03T08:49:26;8.40;99.90
40828;DHT22;26549;50.918;5.338;2023-04-03T08:51:54;8.40;99.90
40828;DHT22;26549;50.918;5.338;2023-04-03T08:54:53;8.30;99.90
40828;DHT22;26549;50.918;5.338;2023-04-03T08:57:38;8.20;99.90
40828;DHT22;26549;50.918;5.338;2023-04-03T09:02:48;8.50;99.90
40828;DHT22;26549;50.918;5.338;2023-04-03T09:05:18;8.60;99.90
40828;DHT22;26549;50.918;5.338;2023-04-03T09:07:47;8.60;99.90
40828;DHT22;26549;50.918;5.338;2023-04-03T09:10:18;8.60;99.90
40828;DHT22;26549;50.918;5.338;2023-04-03T09:13:04;8.80;99.90
40828;DHT22;26549;50.918;5.338;2023-04-03T09:15:33;8.90;99.50
40828;DHT22;26549;50.918;5.338;2023-04-03T09:18:09;8.60;99.50
40828;DHT22;26549;50.918;5.338;2023-04-03T09:20:44;8.20;99.90
40828;DHT22;26549;50.918;5.338;2023-04-03T09:23:42;8.30;99.90
40828;DHT22;26549;50.918;5.338;2023-04-03T09:26:18;8.50;99.40
40828;DHT22;26549;50.918;5.338;2023-04-03T09:28:45;8.70;99.30
40828;DHT22;26549;50.918;5.338;2023-04-03T09:31:32;8.90;99.20
40828;DHT22;26549;50.918;5.338;2023-04-03T09:34:05;9.00;99.60
40828;DHT22;26549;50.918;5.338;2023-04-03T09:36:47;9.10;98.00
40828;DHT22;26549;50.918;5.338;2023-04-03T09:39:23;9.20;98.40
40828;DHT22;26549;50.918;5.338;2023-04-03T09:42:11;9.20;97.70
40828;DHT22;26549;50.918;5.338;2023-04-03T09:44:40;9.20;98.00
40828;DHT22;26549;50.918;5.338;2023-04-03T09:47:45;9.30;98.90
40828;DHT22;26549;50.918;5.338;2023-04-03T09:52:48;9.20;97.00
40828;DHT22;26549;50.918;5.338;2023-04-03T09:57:41;9.30;96.00
40828;DHT22;26549;50.918;5.338;2023-04-03T10:00:23;9.30;96.40
40828;DHT22;26549;50.918;5.338;2023-04-03T10:02:53;9.30;97.70
40828;DHT22;26549;50.918;5.338;2023-04-03T10:05:37;9.60;97.00
40828;DHT22;26549;50.918;5.338;2023-04-03T10:08:25;9.50;96.30
40828;DHT22;26549;50.918;5.338;2023-04-03T10:11:11;9.20;94.50
40828;DHT22;26549;50.918;5.338;2023-04-03T10:13:56;9.30;95.00
40828;DHT22;26549;50.918;5.338;2023-04-03T10:16:45;9.40;95.60
40828;DHT22;26549;50.918;5.338;2023-04-03T10:19:32;9.50;94.10
40828;DHT22;26549;50.918;5.338;2023-04-03T10:22:22;9.60;93.90
40828;DHT22;26549;50.918;5.338;2023-04-03T10:25:14;9.70;90.40
40828;DHT22;26549;50.918;5.338;2023-04-03T10:27:43;9.50;90.10
40828;DHT22;26549;50.918;5.338;2023-04-03T10:41:23;9.80;87.60
40828;DHT22;26549;50.918;5.338;2023-04-03T10:44:15;9.70;83.20
40828;DHT22;26549;50.918;5.338;2023-04-03T10:46:47;10.00;82.90
40828;DHT22;26549;50.918;5.338;2023-04-03T10:49:28;10.10;82.90
40828;DHT22;26549;50.918;5.338;2023-04-03T10:52:12;10.10;81.80
40828;DHT22;26549;50.918;5.338;2023-04-03T10:54:56;10.30;84.80
40828;DHT22;26549;50.918;5.338;2023-04-03T10:57:27;10.20;80.30
40828;DHT22;26549;50.918;5.338;2023-04-03T11:00:03;10.20;79.10
40828;DHT22;26549;50.918;5.338;2023-04-03T11:02:57;10.10;78.40
40828;DHT22;26549;50.918;5.338;2023-04-03T11:05:44;9.80;74.80
40828;DHT22;26549;50.918;5.338;2023-04-03T11:11:00;9.80;79.20
40828;DHT22;26549;50.918;5.338;2023-04-03T11:13:41;9.90;78.10
40828;DHT22;26549;50.918;5.338;2023-04-03T11:16:08;10.00;79.70
40828;DHT22;26549;50.918;5.338;2023-04-03T11:18:45;10.10;77.30
40828;DHT22;26549;50.918;5.338;2023-04-03T11:21:42;10.20;78.50
40828;DHT22;26549;50.918;5.338;2023-04-03T11:24:27;10.10;76.50
40828;DHT22;26549;50.918;5.338;2023-04-03T11:26:56;10.10;77.20
40828;DHT22;26549;50.918;5.338;2023-04-03T11:29:28;10.20;76.40
40828;DHT22;26549;50.918;5.338;2023-04-03T11:32:09;10.20;76.10
40828;DHT22;26549;50.918;5.338;2023-04-03T11:34:46;10.20;76.70
40828;DHT22;26549;50.918;5.338;2023-04-03T11:40:16;10.30;79.50
40828;DHT22;26549;50.918;5.338;2023-04-03T11:42:55;10.40;80.60
40828;DHT22;26549;50.918;5.338;2023-04-03T11:45:45;10.30;78.00
40828;DHT22;26549;50.918;5.338;2023-04-03T11:50:47;10.40;80.30
40828;DHT22;26549;50.918;5.338;2023-04-03T11:58:19;10.10;76.60
40828;DHT22;26549;50.918;5.338;2023-04-03T12:13:38;10.20;79.80
40828;DHT22;26549;50.918;5.338;2023-04-03T12:16:06;10.10;79.90
40828;DHT22;26549;50.918;5.338;2023-04-03T12:20:58;10.10;78.60
40828;DHT22;26549;50.918;5.338;2023-04-03T12:25:51;10.20;83.70
40828;DHT22;26549;50.918;5.338;2023-04-03T12:28:17;10.20;80.40
40828;DHT22;26549;50.918;5.338;2023-04-03T12:30:43;10.30;78.40
40828;DHT22;26549;50.918;5.338;2023-04-03T12:38:33;10.60;79.20
40828;DHT22;26549;50.918;5.338;2023-04-03T12:41:23;10.60;76.30
40828;DHT22;26549;50.918;5.338;2023-04-03T12:46:43;10.50;77.40
40828;DHT22;26549;50.918;5.338;2023-04-03T12:51:57;10.40;77.90
40828;DHT22;26549;50.918;5.338;2023-04-03T12:54:35;10.40;79.80
40828;DHT22;26549;50.918;5.338;2023-04-03T12:59:43;10.50;80.20
40828;DHT22;26549;50.918;5.338;2023-04-03T13:02:29;10.60;79.80
40828;DHT22;26549;50.918;5.338;2023-04-03T13:05:06;10.70;80.70
40828;DHT22;26549;50.918;5.338;2023-04-03T13:07:35;10.80;79.80
40828;DHT22;26549;50.918;5.338;2023-04-03T13:12:33;11.00;80.50
40828;DHT22;26549;50.918;5.338;2023-04-03T13:15:11;10.90;81.00
40828;DHT22;26549;50.918;5.338;2023-04-03T13:17:39;10.60;79.30
40828;DHT22;26549;50.918;5.338;2023-04-03T13:20:11;10.40;80.10
40828;DHT22;26549;50.918;5.338;2023-04-03T13:22:47;10.40;79.00
40828;DHT22;26549;50.918;5.338;2023-04-03T13:25:15;10.50;81.30
40828;DHT22;26549;50.918;5.338;2023-04-03T13:27:42;10.70;79.70
40828;DHT22;26549;50.918;5.338;2023-04-03T13:30:36;10.90;80.00
40828;DHT22;26549;50.918;5.338;2023-04-03T13:33:06;11.10;79.30
40828;DHT22;26549;50.918;5.338;2023-04-03T13:38:06;11.00;78.70
40828;DHT22;26549;50.918;5.338;2023-04-03T13:40:32;11.00;80.70
40828;DHT22;26549;50.918;5.338;2023-04-03T13:43:14;11.00;82.70
40828;DHT22;26549;50.918;5.338;2023-04-03T13:48:45;11.10;79.90
40828;DHT22;26549;50.918;5.338;2023-04-03T13:54:01;11.10;78.10
40828;DHT22;26549;50.918;5.338;2023-04-03T13:56:39;10.90;83.20
40828;DHT22;26549;50.918;5.338;2023-04-03T14:01:46;10.90;80.70
40828;DHT22;26549;50.918;5.338;2023-04-03T14:04:28;11.10;82.70
40828;DHT22;26549;50.918;5.338;2023-04-03T14:06:56;11.20;81.60
40828;DHT22;26549;50.918;5.338;2023-04-03T14:09:24;11.20;79.30
40828;DHT22;26549;50.918;5.338;2023-04-03T14:11:55;11.30;82.00
40828;DHT22;26549;50.918;5.338;2023-04-03T14:14:27;11.30;82.50
40828;DHT22;26549;50.918;5.338;2023-04-03T14:16:55;11.40;79.10
40828;DHT22;26549;50.918;5.338;2023-04-03T14:19:26;11.40;79.70
40828;DHT22;26549;50.918;5.338;2023-04-03T14:21:53;11.30;79.30
40828;DHT22;26549;50.918;5.338;2023-04-03T14:24:20;11.40;80.30
40828;DHT22;26549;50.918;5.338;2023-04-03T14:26:48;11.50;78.90
40828;DHT22;26549;50.918;5.338;2023-04-03T14:29:15;11.40;79.90
40828;DHT22;26549;50.918;5.338;2023-04-03T14:31:43;11.40;80.60
40828;DHT22;26549;50.918;5.338;2023-04-03T14:34:14;11.50;77.80
40828;DHT22;26549;50.918;5.338;2023-04-03T14:36:43;11.50;77.90
40828;DHT22;26549;50.918;5.338;2023-04-03T14:39:19;11.40;79.90
40828;DHT22;26549;50.918;5.338;2023-04-03T14:41:45;11.40;78.40
40828;DHT22;26549;50.918;5.338;2023-04-03T14:44:11;11.40;79.20
40828;DHT22;26549;50.918;5.338;2023-04-03T14:46:40;11.30;77.70
40828;DHT22;26549;50.918;5.338;2023-04-03T14:49:19;11.20;79.80
40828;DHT22;26549;50.918;5.338;2023-04-03T14:51:46;11.10;78.60
40828;DHT22;26549;50.918;5.338;2023-04-03T14:54:18;11.00;77.80
40828;DHT22;26549;50.918;5.338;2023-04-03T14:56:47;11.10;79.00
40828;DHT22;26549;50.918;5.338;2023-04-03T14:59:14;11.20;78.40
40828;DHT22;26549;50.918;5.338;2023-04-03T15:01:42;11.20;79.30
40828;DHT22;26549;50.918;5.338;2023-04-03T15:04:16;11.30;78.90
40828;DHT22;26549;50.918;5.338;2023-04-03T15:06:42;11.10;80.90
40828;DHT22;26549;50.918;5.338;2023-04-03T15:09:27;11.30;80.30
40828;DHT22;26549;50.918;5.338;2023-04-03T15:11:55;11.40;77.60
40828;DHT22;26549;50.918;5.338;2023-04-03T15:14:21;11.50;79.80
40828;DHT22;26549;50.918;5.338;2023-04-03T15:16:48;11.40;77.90
40828;DHT22;26549;50.918;5.338;2023-04-03T15:19:14;11.40;79.90
40828;DHT22;26549;50.918;5.338;2023-04-03T15:21:40;11.40;75.30
40828;DHT22;26549;50.918;5.338;2023-04-03T15:24:06;11.40;75.70
40828;DHT22;26549;50.918;5.338;2023-04-03T15:26:32;11.30;76.10
40828;DHT22;26549;50.918;5.338;2023-04-03T15:28:58;11.20;77.50
40828;DHT22;26549;50.918;5.338;2023-04-03T15:31:24;11.30;80.80
40828;DHT22;26549;50.918;5.338;2023-04-03T15:33:50;11.40;80.30
40828;DHT22;26549;50.918;5.338;2023-04-03T15:36:16;11.10;79.10
40828;DHT22;26549;50.918;5.338;2023-04-03T15:38:42;11.10;79.90
40828;DHT22;26549;50.918;5.338;2023-04-03T15:41:08;11.20;79.30
40828;DHT22;26549;50.918;5.338;2023-04-03T15:43:33;11.20;79.30
40828;DHT22;26549;50.918;5.338;2023-04-03T15:46:00;11.30;80.40
40828;DHT22;26549;50.918;5.338;2023-04-03T15:48:27;11.40;80.70
40828;DHT22;26549;50.918;5.338;2023-04-03T15:50:53;11.50;78.60
40828;DHT22;26549;50.918;5.338;2023-04-03T15:53:19;11.50;77.70
40828;DHT22;26549;50.918;5.338;2023-04-03T15:55:46;11.40;78.00
40828;DHT22;26549;50.918;5.338;2023-04-03T15:58:12;11.30;79.60
40828;DHT22;26549;50.918;5.338;2023-04-03T16:00:38;11.30;78.20
40828;DHT22;26549;50.918;5.338;2023-04-03T16:03:09;11.40;78.90
40828;DHT22;26549;50.918;5.338;2023-04-03T16:05:36;11.50;79.70
40828;DHT22;26549;50.918;5.338;2023-04-03T16:08:02;11.50;78.90
40828;DHT22;26549;50.918;5.338;2023-04-03T16:10:29;11.50;78.90
40828;DHT22;26549;50.918;5.338;2023-04-03T16:12:55;11.30;78.70
40828;DHT22;26549;50.918;5.338;2023-04-03T16:15:21;11.30;78.60
40828;DHT22;26549;50.918;5.338;2023-04-03T16:17:47;11.20;78.60
40828;DHT22;26549;50.918;5.338;2023-04-03T16:20:14;11.10;78.00
40828;DHT22;26549;50.918;5.338;2023-04-03T16:22:50;11.10;78.70
40828;DHT22;26549;50.918;5.338;2023-04-03T16:25:17;11.20;77.70
40828;DHT22;26549;50.918;5.338;2023-04-03T16:27:43;11.10;77.20
40828;DHT22;26549;50.918;5.338;2023-04-03T16:30:10;11.10;77.60
40828;DHT22;26549;50.918;5.338;2023-04-03T16:32:37;11.00;78.40
40828;DHT22;26549;50.918;5.338;2023-04-03T16:35:04;11.00;78.50
40828;DHT22;26549;50.918;5.338;2023-04-03T16:37:30;10.90;77.70
40828;DHT22;26549;50.918;5.338;2023-04-03T16:39:56;10.90;77.70
40828;DHT22;26549;50.918;5.338;2023-04-03T16:42:24;10.80;78.60
40828;DHT22;26549;50.918;5.338;2023-04-03T16:44:50;10.90;78.80
40828;DHT22;26549;50.918;5.338;2023-04-03T16:47:15;10.80;80.20
40828;DHT22;26549;50.918;5.338;2023-04-03T16:49:44;10.90;79.70
40828;DHT22;26549;50.918;5.338;2023-04-03T16:52:10;10.80;77.10
40828;DHT22;26549;50.918;5.338;2023-04-03T16:54:36;10.70;77.00
40828;DHT22;26549;50.918;5.338;2023-04-03T16:57:02;10.50;78.60
40828;DHT22;26549;50.918;5.338;2023-04-03T16:59:28;10.50;80.00
40828;DHT22;26549;50.918;5.338;2023-04-03T17:01:54;10.60;80.10
40828;DHT22;26549;50.918;5.338;2023-04-03T17:04:19;10.60;79.30
40828;DHT22;26549;50.918;5.338;2023-04-03T17:06:45;10.60;77.90
40828;DHT22;26549;50.918;5.338;2023-04-03T17:09:11;10.60;78.20
40828;DHT22;26549;50.918;5.338;2023-04-03T17:11:37;10.50;79.20
40828;DHT22;26549;50.918;5.338;2023-04-03T17:14:04;10.40;78.40
40828;DHT22;26549;50.918;5.338;2023-04-03T17:16:30;10.40;78.10
40828;DHT22;26549;50.918;5.338;2023-04-03T17:18:57;10.40;77.80
40828;DHT22;26549;50.918;5.338;2023-04-03T17:21:23;10.30;80.00